createdAt,value
2018-09-28T00:00:30.480Z,13.70
2018-09-28T00:02:59.780Z,13.62
2018-09-28T00:05:29.001Z,13.54
2018-09-28T00:07:58.248Z,13.56
2018-09-28T00:10:27.549Z,13.61
2018-09-28T00:12:56.780Z,13.60
2018-09-28T00:15:26.951Z,13.54
2018-09-28T00:17:56.295Z,13.52
2018-09-28T00:20:25.542Z,13.53
2018-09-28T00:22:54.854Z,13.46
2018-09-28T00:25:24.072Z,13.36
2018-09-28T00:27:53.276Z,13.29
2018-09-28T00:30:22.560Z,13.34
2018-09-28T00:32:51.807Z,13.19
2018-09-28T00:35:21.100Z,13.19
2018-09-28T00:37:50.419Z,13.19
2018-09-28T00:40:19.607Z,13.21
2018-09-28T00:42:48.875Z,13.24
2018-09-28T00:45:18.098Z,13.23
2018-09-28T00:47:47.326Z,13.19
2018-09-28T00:50:17.609Z,13.22
2018-09-28T00:52:46.957Z,13.24
2018-09-28T00:55:16.204Z,13.26
2018-09-28T00:57:45.441Z,13.22
2018-09-28T01:00:14.762Z,13.15
2018-09-28T01:02:44.018Z,13.25
2018-09-28T01:05:13.263Z,13.16
2018-09-28T01:07:43.544Z,13.05
2018-09-28T01:10:12.738Z,12.96
2018-09-28T01:12:42.007Z,12.94
2018-09-28T01:15:11.235Z,12.83
2018-09-28T01:17:40.437Z,12.93
2018-09-28T01:20:09.840Z,12.93
2018-09-28T01:22:39.229Z,12.80
2018-09-28T01:25:08.453Z,12.68
2018-09-28T01:27:37.687Z,12.84
2018-09-28T01:30:07.895Z,12.63
2018-09-28T01:32:37.195Z,12.57
2018-09-28T01:35:06.393Z,12.62
2018-09-28T01:37:35.617Z,12.56
2018-09-28T01:40:08.445Z,12.63
2018-09-28T01:42:37.763Z,12.66
2018-09-28T01:45:07.056Z,12.58
2018-09-28T01:47:36.335Z,12.49
2018-09-28T01:50:05.663Z,12.60
2018-09-28T01:52:34.979Z,12.56
2018-09-28T01:55:04.358Z,12.47
2018-09-28T01:57:33.595Z,12.45
2018-09-28T02:00:02.856Z,12.45
2018-09-28T02:02:32.097Z,12.42
2018-09-28T02:05:01.347Z,12.37
2018-09-28T02:07:30.553Z,12.34
2018-09-28T02:09:59.775Z,12.33
2018-09-28T02:12:29.196Z,12.32
2018-09-28T02:14:58.394Z,12.23
2018-09-28T02:17:27.630Z,12.22
2018-09-28T02:19:56.953Z,12.28
2018-09-28T02:22:26.280Z,12.29
2018-09-28T02:24:55.536Z,12.36
2018-09-28T02:27:24.797Z,12.26
2018-09-28T02:29:54.010Z,12.23
2018-09-28T02:32:23.325Z,12.18
2018-09-28T02:34:52.540Z,12.18
2018-09-28T02:37:21.793Z,12.21
2018-09-28T02:39:51.162Z,12.19
2018-09-28T02:42:20.391Z,12.18
2018-09-28T02:44:49.608Z,12.04
2018-09-28T02:47:18.895Z,11.96
2018-09-28T02:49:48.111Z,11.88
2018-09-28T02:52:17.361Z,11.89
2018-09-28T02:54:46.663Z,11.87
2018-09-28T02:57:15.950Z,11.88
2018-09-28T02:59:45.285Z,11.73
2018-09-28T03:02:14.541Z,11.73
2018-09-28T03:04:43.841Z,11.76
2018-09-28T03:07:13.174Z,11.76
2018-09-28T03:09:42.490Z,11.59
2018-09-28T03:12:11.824Z,11.55
2018-09-28T03:14:41.046Z,11.54
2018-09-28T03:17:10.514Z,11.50
2018-09-28T03:19:39.794Z,11.58
2018-09-28T03:22:10.074Z,11.54
2018-09-28T03:24:39.323Z,11.50
2018-09-28T03:27:08.551Z,11.49
2018-09-28T03:29:37.965Z,11.50
2018-09-28T03:32:07.328Z,11.45
2018-09-28T03:34:36.549Z,11.43
2018-09-28T03:37:05.826Z,11.39
2018-09-28T03:39:35.262Z,11.30
2018-09-28T03:42:04.493Z,11.27
2018-09-28T03:44:33.721Z,11.24
2018-09-28T03:47:03.374Z,11.15
2018-09-28T03:49:32.582Z,11.10
2018-09-28T03:52:01.825Z,10.97
2018-09-28T03:54:31.362Z,10.98
2018-09-28T03:57:00.548Z,10.97
2018-09-28T03:59:29.771Z,10.95
2018-09-28T04:02:03.719Z,10.96
2018-09-28T04:04:34.051Z,10.93
2018-09-28T04:07:03.370Z,10.91
2018-09-28T04:09:32.679Z,10.89
2018-09-28T04:12:01.877Z,10.85
2018-09-28T04:14:31.133Z,10.74
2018-09-28T04:17:00.771Z,10.80
2018-09-28T04:19:29.990Z,10.78
2018-09-28T04:22:00.403Z,10.81
2018-09-28T04:24:30.907Z,10.70
2018-09-28T04:27:00.221Z,10.59
2018-09-28T04:29:29.523Z,10.62
2018-09-28T04:31:58.938Z,10.57
2018-09-28T04:34:28.160Z,10.59
2018-09-28T04:36:57.478Z,10.63
2018-09-28T04:39:28.771Z,10.56
2018-09-28T04:41:57.985Z,10.55
2018-09-28T04:44:27.197Z,10.47
2018-09-28T04:46:56.525Z,10.47
2018-09-28T04:49:25.767Z,10.48
2018-09-28T04:51:54.994Z,10.40
2018-09-28T04:54:24.402Z,10.33
2018-09-28T04:56:55.694Z,10.27
2018-09-28T04:59:25.039Z,10.28
2018-09-28T05:01:54.282Z,10.30
2018-09-28T05:04:23.620Z,10.25
2018-09-28T05:06:52.878Z,10.17
2018-09-28T05:09:22.115Z,10.11
2018-09-28T05:11:51.433Z,10.13
2018-09-28T05:14:20.825Z,10.04
2018-09-28T05:16:50.035Z,10.09
2018-09-28T05:19:19.270Z,10.18
2018-09-28T05:21:48.615Z,10.10
2018-09-28T05:24:17.834Z,10.07
2018-09-28T05:26:47.274Z,10.08
2018-09-28T05:29:16.620Z,10.11
2018-09-28T05:31:46.239Z,10.12
2018-09-28T05:34:15.353Z,10.16
2018-09-28T05:36:44.648Z,10.17
2018-09-28T05:39:14.028Z,10.16
2018-09-28T05:41:43.231Z,10.17
2018-09-28T05:44:12.549Z,10.10
2018-09-28T05:46:41.870Z,10.17
2018-09-28T05:49:11.094Z,10.22
2018-09-28T05:51:40.355Z,10.20
2018-09-28T05:54:09.909Z,10.22
2018-09-28T05:56:39.165Z,10.27
2018-09-28T05:59:13.759Z,10.29
2018-09-28T06:01:48.410Z,10.32
2018-09-28T06:04:23.029Z,10.35
2018-09-28T06:06:52.726Z,10.34
2018-09-28T06:09:21.937Z,10.35
2018-09-28T06:11:51.358Z,10.38
2018-09-28T06:14:20.609Z,10.33
2018-09-28T06:16:49.844Z,10.55
2018-09-28T06:19:19.154Z,10.69
2018-09-28T06:21:48.473Z,10.79
2018-09-28T06:24:17.762Z,10.80
2018-09-28T06:26:48.044Z,10.90
2018-09-28T06:29:17.251Z,10.90
2018-09-28T06:31:46.514Z,10.88
2018-09-28T06:34:16.134Z,10.94
2018-09-28T06:36:45.467Z,10.98
2018-09-28T06:39:15.783Z,10.98
2018-09-28T06:41:45.118Z,10.89
2018-09-28T06:44:14.275Z,10.94
2018-09-28T06:46:43.618Z,11.07
2018-09-28T06:49:12.967Z,11.11
2018-09-28T06:51:42.190Z,11.21
2018-09-28T06:54:11.464Z,11.20
2018-09-28T06:56:40.663Z,11.27
2018-09-28T06:59:09.874Z,11.28
2018-09-28T07:01:39.078Z,11.30
2018-09-28T07:04:08.464Z,11.31
2018-09-28T07:06:37.686Z,11.34
2018-09-28T07:09:10.654Z,11.47
2018-09-28T07:11:41.807Z,11.52
2018-09-28T07:14:11.298Z,11.60
2018-09-28T07:16:41.097Z,11.73
2018-09-28T07:19:10.360Z,11.78
2018-09-28T07:21:39.636Z,12.01
2018-09-28T07:24:08.975Z,11.97
2018-09-28T07:26:38.138Z,11.98
2018-09-28T07:29:07.369Z,11.89
2018-09-28T07:31:36.718Z,11.90
2018-09-28T07:34:05.970Z,11.95
2018-09-28T07:36:35.450Z,11.95
2018-09-28T07:39:06.961Z,12.08
2018-09-28T07:41:36.570Z,12.04
2018-09-28T07:44:05.828Z,12.04
2018-09-28T07:46:35.063Z,12.26
2018-09-28T07:49:04.459Z,12.32
2018-09-28T07:51:34.598Z,12.22
2018-09-28T07:54:03.870Z,12.39
2018-09-28T07:56:33.103Z,12.43
2018-09-28T07:59:02.357Z,12.33
2018-09-28T08:01:31.604Z,12.48
2018-09-28T08:04:00.855Z,12.57
2018-09-28T08:06:30.086Z,12.69
2018-09-28T08:08:59.405Z,12.87
2018-09-28T08:11:28.636Z,12.97
2018-09-28T08:13:57.873Z,12.87
2018-09-28T08:16:27.200Z,12.98
2018-09-28T08:18:56.509Z,12.99
2018-09-28T08:21:25.778Z,12.97
2018-09-28T08:23:55.137Z,13.09
2018-09-28T08:26:24.405Z,13.00
2018-09-28T08:28:53.634Z,12.72
2018-09-28T08:31:22.880Z,12.70
2018-09-28T08:33:52.132Z,13.00
2018-09-28T08:36:21.463Z,13.01
2018-09-28T08:38:50.632Z,13.28
2018-09-28T08:41:19.962Z,13.76
2018-09-28T08:43:49.359Z,14.01
2018-09-28T08:46:18.883Z,14.23
2018-09-28T08:48:48.167Z,14.49
2018-09-28T08:51:17.382Z,14.86
2018-09-28T08:53:46.653Z,15.09
2018-09-28T08:56:15.866Z,15.91
2018-09-28T08:58:45.177Z,16.61
2018-09-28T09:01:14.400Z,16.33
2018-09-28T09:03:43.832Z,16.74
2018-09-28T09:06:13.096Z,17.23
2018-09-28T09:08:42.438Z,17.23
2018-09-28T09:11:11.698Z,17.35
2018-09-28T09:13:40.898Z,18.14
2018-09-28T09:16:10.217Z,18.21
2018-09-28T09:18:39.532Z,17.81
2018-09-28T09:21:08.946Z,16.40
2018-09-28T09:23:38.270Z,17.54
2018-09-28T09:26:07.650Z,17.72
2018-09-28T09:28:36.937Z,17.57
2018-09-28T09:31:06.821Z,17.21
2018-09-28T09:33:36.176Z,18.08
2018-09-28T09:36:05.429Z,18.02
2018-09-28T09:38:34.701Z,17.22
2018-09-28T09:41:04.000Z,17.26
2018-09-28T09:43:33.360Z,16.86
2018-09-28T09:46:02.585Z,16.38
2018-09-28T09:48:32.142Z,17.25
2018-09-28T09:51:01.363Z,17.98
2018-09-28T09:53:31.215Z,18.59
2018-09-28T09:56:01.800Z,19.69
2018-09-28T09:58:31.055Z,20.77
2018-09-28T10:01:06.480Z,20.07
2018-09-28T10:03:42.145Z,18.55
2018-09-28T10:06:11.778Z,17.56
2018-09-28T10:08:41.276Z,16.54
2018-09-28T10:11:10.598Z,16.68
2018-09-28T10:13:40.893Z,17.18
2018-09-28T10:16:10.156Z,18.29
2018-09-28T10:18:39.471Z,18.24
2018-09-28T10:21:08.725Z,19.22
2018-09-28T10:23:38.007Z,18.80
2018-09-28T10:26:07.252Z,16.97
2018-09-28T10:28:36.627Z,16.11
2018-09-28T10:31:05.832Z,15.50
2018-09-28T10:33:35.086Z,16.61
2018-09-28T10:36:04.578Z,17.89
2018-09-28T10:38:34.159Z,18.67
2018-09-28T10:41:03.468Z,18.46
2018-09-28T10:43:32.816Z,17.77
2018-09-28T10:46:02.067Z,18.51
2018-09-28T10:48:31.363Z,19.22
2018-09-28T10:51:00.792Z,19.28
2018-09-28T10:53:30.011Z,18.28
2018-09-28T10:55:59.199Z,17.98
2018-09-28T10:58:28.616Z,18.52
2018-09-28T11:00:57.747Z,18.76
2018-09-28T11:03:27.094Z,19.80
2018-09-28T11:05:56.319Z,20.57
2018-09-28T11:08:25.745Z,20.20
2018-09-28T11:10:55.194Z,20.03
2018-09-28T11:13:25.796Z,21.04
2018-09-28T11:15:55.204Z,21.94
2018-09-28T11:18:24.427Z,20.57
2018-09-28T11:20:53.806Z,21.03
2018-09-28T11:23:26.199Z,21.33
2018-09-28T11:25:55.589Z,20.17
2018-09-28T11:28:24.834Z,20.33
2018-09-28T11:30:54.130Z,20.55
2018-09-28T11:33:23.654Z,20.87
2018-09-28T11:35:53.941Z,20.89
2018-09-28T11:38:23.205Z,21.18
2018-09-28T11:40:52.515Z,19.26
2018-09-28T11:43:21.862Z,19.81
2018-09-28T11:45:51.333Z,19.01
2018-09-28T11:48:20.542Z,19.04
2018-09-28T11:50:51.939Z,18.99
2018-09-28T11:53:21.214Z,18.17
2018-09-28T11:55:54.078Z,17.91
2018-09-28T11:58:23.481Z,17.50
2018-09-28T12:00:52.719Z,17.56
2018-09-28T12:03:22.068Z,17.34
2018-09-28T12:05:51.380Z,16.67
2018-09-28T12:08:20.686Z,16.46
2018-09-28T12:10:49.959Z,16.86
2018-09-28T12:13:19.324Z,16.94
2018-09-28T12:15:48.593Z,17.00
2018-09-28T12:18:17.851Z,17.98
2018-09-28T12:20:47.099Z,17.83
2018-09-28T12:23:16.456Z,17.46
2018-09-28T12:25:45.768Z,18.18
2018-09-28T12:28:15.062Z,17.32
2018-09-28T12:30:44.291Z,17.38
2018-09-28T12:33:13.548Z,18.13
2018-09-28T12:35:42.914Z,18.91
2018-09-28T12:38:12.072Z,19.17
2018-09-28T12:40:41.291Z,19.35
2018-09-28T12:43:10.729Z,19.52
2018-09-28T12:45:39.971Z,18.85
2018-09-28T12:48:09.208Z,19.43
2018-09-28T12:50:38.613Z,19.74
2018-09-28T12:53:07.801Z,20.18
2018-09-28T12:55:37.174Z,19.62
2018-09-28T12:58:06.900Z,18.91
2018-09-28T13:00:36.193Z,18.71
2018-09-28T13:03:05.421Z,18.63
2018-09-28T13:05:34.771Z,18.32
2018-09-28T13:08:04.021Z,18.18
2018-09-28T13:10:33.298Z,17.97
2018-09-28T13:13:04.930Z,17.75
2018-09-28T13:15:34.228Z,17.76
2018-09-28T13:18:03.457Z,17.89
2018-09-28T13:20:33.888Z,17.66
2018-09-28T13:23:03.106Z,17.33
2018-09-28T13:25:32.357Z,17.31
2018-09-28T13:28:01.684Z,16.58
2018-09-28T13:30:30.949Z,15.93
2018-09-28T13:33:00.256Z,14.85
2018-09-28T13:35:30.562Z,14.81
2018-09-28T13:37:59.813Z,14.72
2018-09-28T13:40:29.114Z,14.80
2018-09-28T13:42:59.540Z,14.93
2018-09-28T13:45:28.796Z,15.19
2018-09-28T13:47:58.061Z,15.22
2018-09-28T13:50:27.431Z,15.13
2018-09-28T13:52:56.595Z,14.85
2018-09-28T13:55:25.825Z,14.81
2018-09-28T13:57:55.082Z,14.82
2018-09-28T14:00:24.354Z,14.31
2018-09-28T14:02:53.537Z,14.56
2018-09-28T14:05:22.815Z,14.36
2018-09-28T14:07:52.071Z,14.55
2018-09-28T14:10:21.280Z,14.69
2018-09-28T14:12:50.577Z,14.81
2018-09-28T14:15:19.911Z,15.04
2018-09-28T14:17:49.158Z,14.88
2018-09-28T14:20:18.602Z,15.13
2018-09-28T14:22:47.816Z,15.50
2018-09-28T14:25:17.058Z,15.63
2018-09-28T14:27:46.340Z,15.22
2018-09-28T14:30:15.564Z,15.36
2018-09-28T14:32:44.811Z,15.54
2018-09-28T14:35:14.056Z,15.44
2018-09-28T14:37:43.253Z,15.31
2018-09-28T14:40:12.584Z,15.23
2018-09-28T14:42:41.801Z,15.22
2018-09-28T14:45:11.000Z,15.18
2018-09-28T14:47:40.260Z,15.13
2018-09-28T14:50:09.864Z,14.82
2018-09-28T14:52:39.112Z,14.96
2018-09-28T14:55:12.415Z,14.98
2018-09-28T14:57:41.865Z,15.05
2018-09-28T15:00:12.216Z,14.97
2018-09-28T15:02:41.380Z,15.18
2018-09-28T15:05:10.618Z,15.17
2018-09-28T15:07:39.948Z,15.29
2018-09-28T15:10:09.238Z,15.44
2018-09-28T15:12:38.534Z,15.30
2018-09-28T15:15:07.822Z,15.12
2018-09-28T15:17:37.326Z,15.03
2018-09-28T15:20:06.899Z,14.78
2018-09-28T15:22:36.175Z,14.79
2018-09-28T15:25:06.574Z,14.72
2018-09-28T15:27:35.886Z,14.80
2018-09-28T15:30:05.884Z,14.77
2018-09-28T15:32:35.175Z,14.57
2018-09-28T15:35:04.717Z,14.47
2018-09-28T15:37:33.954Z,14.14
2018-09-28T15:40:03.279Z,14.22
2018-09-28T15:42:32.594Z,14.17
2018-09-28T15:45:01.878Z,14.25
2018-09-28T15:47:31.190Z,14.02
2018-09-28T15:50:00.435Z,13.92
2018-09-28T15:52:29.677Z,14.00
2018-09-28T15:55:00.143Z,13.92
2018-09-28T15:57:29.426Z,14.06
2018-09-28T15:59:58.782Z,14.02
2018-09-28T16:02:28.201Z,13.99
2018-09-28T16:04:57.432Z,13.97
2018-09-28T16:07:26.759Z,13.93
2018-09-28T16:09:56.232Z,14.01
2018-09-28T16:12:26.096Z,13.95
2018-09-28T16:14:55.447Z,13.99
2018-09-28T16:17:24.905Z,13.84
2018-09-28T16:19:54.132Z,13.64
2018-09-28T16:22:23.358Z,13.77
2018-09-28T16:24:52.690Z,13.68
2018-09-28T16:27:21.934Z,13.69
2018-09-28T16:29:51.183Z,13.66
2018-09-28T16:32:20.480Z,13.61
2018-09-28T16:34:50.774Z,13.38
2018-09-28T16:37:20.852Z,13.28
2018-09-28T16:39:50.407Z,13.35
2018-09-28T16:42:19.805Z,13.16
2018-09-28T16:44:49.014Z,13.19
2018-09-28T16:47:18.316Z,13.08
2018-09-28T16:49:47.615Z,12.95
2018-09-28T16:52:16.914Z,13.05
2018-09-28T16:54:46.255Z,13.07
2018-09-28T16:57:16.567Z,12.98
2018-09-28T16:59:45.872Z,13.03
2018-09-28T17:02:15.159Z,12.94
2018-09-28T17:04:45.422Z,12.89
2018-09-28T17:07:14.673Z,12.82
2018-09-28T17:09:44.115Z,12.75
2018-09-28T17:12:13.430Z,12.72
2018-09-28T17:14:42.668Z,12.68
2018-09-28T17:17:12.062Z,12.60
2018-09-28T17:19:41.321Z,12.54
2018-09-28T17:22:10.621Z,12.40
2018-09-28T17:24:39.967Z,12.29
2018-09-28T17:27:09.291Z,12.31
2018-09-28T17:29:38.538Z,12.30
2018-09-28T17:32:07.822Z,12.25
2018-09-28T17:34:37.042Z,12.26
2018-09-28T17:37:07.440Z,12.18
2018-09-28T17:39:36.783Z,12.14
2018-09-28T17:42:06.072Z,12.02
2018-09-28T17:44:35.295Z,12.03
2018-09-28T17:47:04.603Z,12.01
2018-09-28T17:49:33.899Z,11.90
2018-09-28T17:52:03.200Z,11.92
2018-09-28T17:54:33.629Z,11.90
2018-09-28T17:57:02.935Z,11.81
2018-09-28T17:59:32.326Z,11.71
2018-09-28T18:02:01.621Z,11.67
2018-09-28T18:04:32.197Z,11.67
2018-09-28T18:07:01.560Z,11.71
2018-09-28T18:09:31.530Z,11.60
2018-09-28T18:12:00.861Z,11.59
2018-09-28T18:14:31.209Z,11.58
2018-09-28T18:17:01.529Z,11.53
2018-09-28T18:19:34.342Z,11.51
2018-09-28T18:22:03.875Z,11.44
2018-09-28T18:24:33.186Z,11.44
2018-09-28T18:27:02.499Z,11.45
2018-09-28T18:29:31.741Z,11.46
2018-09-28T18:32:01.018Z,11.39
2018-09-28T18:34:30.297Z,11.34
2018-09-28T18:37:02.035Z,11.24
2018-09-28T18:39:31.377Z,11.28
2018-09-28T18:42:01.762Z,11.17
2018-09-28T18:44:30.990Z,11.14
2018-09-28T18:47:00.527Z,11.06
2018-09-28T18:49:30.072Z,11.05
2018-09-28T18:51:59.514Z,11.02
2018-09-28T18:54:28.702Z,10.89
2018-09-28T18:56:57.941Z,10.98
2018-09-28T18:59:27.201Z,10.89
2018-09-28T19:01:56.622Z,10.90
2018-09-28T19:05:55.264Z,10.90
2018-09-28T19:08:25.532Z,10.83
2018-09-28T19:10:54.834Z,10.83
2018-09-28T19:13:24.194Z,10.73
2018-09-28T19:15:56.518Z,10.80
2018-09-28T19:18:26.842Z,10.77
2018-09-28T19:20:56.040Z,10.73
2018-09-28T19:23:25.420Z,10.74
2018-09-28T19:25:55.557Z,10.60
2018-09-28T19:28:25.049Z,10.64
2018-09-28T19:30:54.472Z,10.64
2018-09-28T19:33:23.647Z,10.58
2018-09-28T19:35:53.978Z,10.65
2018-09-28T19:38:23.233Z,10.58
2018-09-28T19:40:52.485Z,10.58
2018-09-28T19:43:21.793Z,10.61
2018-09-28T19:45:51.334Z,10.60
2018-09-28T19:48:20.627Z,10.55
2018-09-28T19:50:49.890Z,10.52
2018-09-28T19:53:19.186Z,10.51
2018-09-28T19:55:48.495Z,10.39
2018-09-28T19:58:17.877Z,10.39
2018-09-28T20:00:48.242Z,10.38
2018-09-28T20:03:17.512Z,10.24
2018-09-28T20:05:46.846Z,10.31
2018-09-28T20:08:16.216Z,10.38
2018-09-28T20:10:45.524Z,10.39
2018-09-28T20:13:14.856Z,10.36
2018-09-28T20:15:44.092Z,10.32
2018-09-28T20:18:13.374Z,10.30
2018-09-28T20:20:43.637Z,10.19
2018-09-28T20:23:12.937Z,10.18
2018-09-28T20:25:42.223Z,10.14
2018-09-28T20:28:11.546Z,10.16
2018-09-28T20:30:40.785Z,10.06
2018-09-28T20:33:10.271Z,10.08
2018-09-28T20:35:40.613Z,10.10
2018-09-28T20:38:09.846Z,10.03
2018-09-28T20:40:39.215Z,9.99
2018-09-28T20:43:08.638Z,9.98
2018-09-28T20:45:37.920Z,10.01
2018-09-28T20:48:07.195Z,9.92
2018-09-28T20:50:36.463Z,9.95
2018-09-28T20:53:12.238Z,9.89
2018-09-28T20:55:41.582Z,9.77
2018-09-28T20:58:10.777Z,9.74
2018-09-28T21:00:40.042Z,9.69
2018-09-28T21:03:12.145Z,9.65
2018-09-28T21:05:41.518Z,9.67
2018-09-28T21:08:10.787Z,9.66
2018-09-28T21:10:40.069Z,9.58
2018-09-28T21:13:09.360Z,9.60
2018-09-28T21:15:38.554Z,9.53
2018-09-28T21:18:07.853Z,9.41
2018-09-28T21:20:37.117Z,9.30
2018-09-28T21:23:06.962Z,9.21
2018-09-28T21:25:36.175Z,9.10
2018-09-28T21:28:05.463Z,9.10
2018-09-28T21:30:34.806Z,9.22
2018-09-28T21:33:04.045Z,9.28
2018-09-28T21:35:34.393Z,9.22
2018-09-28T21:38:03.714Z,9.15
2018-09-28T21:40:32.970Z,9.17
2018-09-28T21:43:02.197Z,9.05
2018-09-28T21:45:31.554Z,9.14
2018-09-28T21:48:00.846Z,9.12
2018-09-28T21:50:30.186Z,8.98
2018-09-28T21:52:59.540Z,8.87
2018-09-28T21:55:30.883Z,8.79
2018-09-28T21:58:00.184Z,8.68
2018-09-28T22:00:29.581Z,8.70
2018-09-28T22:03:00.649Z,8.70
2018-09-28T22:05:30.512Z,8.66
2018-09-28T22:07:59.806Z,8.85
2018-09-28T22:10:33.182Z,8.89
2018-09-28T22:13:02.439Z,8.93
2018-09-28T22:15:31.702Z,8.94
2018-09-28T22:18:02.206Z,9.01
2018-09-28T22:20:32.153Z,9.08
2018-09-28T22:23:01.418Z,8.99
2018-09-28T22:25:30.830Z,9.09
2018-09-28T22:28:00.057Z,9.13
2018-09-28T22:30:30.339Z,9.16
2018-09-28T22:32:59.678Z,9.09
2018-09-28T22:35:28.923Z,9.09
2018-09-28T22:37:58.249Z,9.02
2018-09-28T22:40:27.531Z,8.95
2018-09-28T22:42:56.845Z,8.91
2018-09-28T22:45:26.141Z,8.88
2018-09-28T22:47:55.444Z,8.81
2018-09-28T22:50:24.642Z,8.74
2018-09-28T22:52:53.869Z,8.73
2018-09-28T22:55:23.150Z,8.80
2018-09-28T22:57:52.337Z,8.88
2018-09-28T23:00:21.639Z,8.89
2018-09-28T23:02:50.921Z,8.85
2018-09-28T23:05:20.135Z,8.77
2018-09-28T23:07:50.392Z,8.72
2018-09-28T23:10:19.637Z,8.63
2018-09-28T23:12:48.933Z,8.56
2018-09-28T23:15:18.174Z,8.43
2018-09-28T23:17:47.398Z,8.53
2018-09-28T23:20:16.670Z,8.34
2018-09-28T23:22:45.954Z,8.47
2018-09-28T23:25:15.241Z,8.54
2018-09-28T23:27:47.274Z,8.50
2018-09-28T23:30:17.273Z,8.43
2018-09-28T23:32:46.534Z,8.32
2018-09-28T23:35:16.787Z,8.24
2018-09-28T23:37:46.094Z,8.21
2018-09-28T23:40:15.333Z,8.14
2018-09-28T23:42:44.623Z,8.23
2018-09-28T23:45:14.059Z,8.30
2018-09-28T23:47:43.407Z,8.37
2018-09-28T23:50:12.538Z,8.31
2018-09-28T23:52:42.074Z,8.23
2018-09-28T23:55:11.342Z,8.18
2018-09-28T23:57:40.550Z,8.15
